TAF KPAE
KPAE 270520Z 2706/2806 15005KT P6SM SCT020 OVC100 TEMPO 2706/2710 BKN020 OVC040 FM271000 15007KT P6SM OVC015 FM271600 16008KT P6SM -RA OVC015 FM272000 18012KT 5SM -RA BR OVC012 FM280400 18015G25KT P6SM VCSH BKN015 BKN040 OVC100=
METAR KPAE
WC KPAE
WS KPAE
WV KPAE